Time;durP1;ratioP1;P1;durP2;ratioP2;P2;SDS_P1;SDS_P2;PMS_P1;PMS_P2;Temp;Humidity;BMP_temperature;BMP_pressure;BME280_temperature;BME280_humidity;BME280_pressure;Samples;Min_cycle;Max_cycle;Signal;HPM_P1;HPM_P2
2023/01/24 00:00:04;;;;;;;;;;;19.40;38.20;;;;;;5091969;28;19970;-72
2023/01/24 00:02:30;;;;;;;;;;;19.30;38.20;;;;;;5091985;28;19920;-71
2023/01/24 00:04:55;;;;;;;;;;;19.30;38.30;;;;;;5090632;28;19928;-73
2023/01/24 00:07:21;;;;;;;;;;;19.30;38.40;;;;;;5090798;28;19931;-71
2023/01/24 00:09:46;;;;;;;;;;;19.20;38.40;;;;;;5091008;28;19927;-71
2023/01/24 00:12:12;;;;;;;;;;;19.10;38.40;;;;;;5094156;28;19920;-74
2023/01/24 00:14:38;;;;;;;;;;;19.10;38.50;;;;;;5094773;28;20292;-73
2023/01/24 00:17:03;;;;;;;;;;;19.10;38.60;;;;;;5095744;28;19920;-74
2023/01/24 00:19:29;;;;;;;;;;;19.10;38.60;;;;;;5094750;28;19920;-71
2023/01/24 00:21:54;;;;;;;;;;;19.00;38.70;;;;;;5095820;28;19920;-72
2023/01/24 00:24:20;;;;;;;;;;;19.00;38.70;;;;;;5097034;28;19920;-72
2023/01/24 00:26:45;;;;;;;;;;;18.90;38.80;;;;;;5115852;28;20404;-74
2023/01/24 00:29:11;;;;;;;;;;;18.90;38.80;;;;;;5132053;27;19971;-72
2023/01/24 00:31:36;;;;;;;;;;;18.90;39.00;;;;;;5097518;28;20259;-71
2023/01/24 00:34:02;;;;;;;;;;;18.80;38.80;;;;;;5097323;28;19969;-73
2023/01/24 00:36:27;;;;;;;;;;;18.80;38.90;;;;;;5097725;28;19965;-72
2023/01/24 00:38:54;;;;;;;;;;;18.80;38.80;;;;;;5097358;28;19926;-74
2023/01/24 00:41:20;;;;;;;;;;;18.80;38.90;;;;;;5115765;28;19926;-73
2023/01/24 00:43:45;;;;;;;;;;;18.80;38.90;;;;;;5115596;28;20335;-73
2023/01/24 00:46:11;;;;;;;;;;;18.70;38.90;;;;;;5097237;28;19923;-72
2023/01/24 00:48:37;;;;;;;;;;;18.70;38.90;;;;;;5097276;28;19955;-73
2023/01/24 00:51:05;;;;;;;;;;;18.60;38.90;;;;;;5097374;28;19924;-73
2023/01/24 00:53:31;;;;;;;;;;;18.60;38.90;;;;;;5097305;28;19924;-71
2023/01/24 00:55:56;;;;;;;;;;;18.60;38.90;;;;;;5097099;28;20018;-72
2023/01/24 00:58:22;;;;;;;;;;;18.60;39.00;;;;;;5096979;28;20061;-73
2023/01/24 01:00:48;;;;;;;;;;;18.60;39.00;;;;;;5097362;28;19920;-74
2023/01/24 01:03:14;;;;;;;;;;;18.50;39.10;;;;;;5079943;28;20286;-72
2023/01/24 01:05:40;;;;;;;;;;;18.50;39.10;;;;;;5097055;28;19920;-71
2023/01/24 01:08:06;;;;;;;;;;;18.50;39.10;;;;;;5115142;28;19924;-74
2023/01/24 01:10:31;;;;;;;;;;;18.50;39.10;;;;;;5097282;28;19962;-73
2023/01/24 01:12:57;;;;;;;;;;;18.50;39.20;;;;;;5115068;28;20374;-73
2023/01/24 01:15:22;;;;;;;;;;;18.40;39.10;;;;;;5115001;28;19941;-73
2023/01/24 01:17:51;;;;;;;;;;;18.40;39.10;;;;;;5096889;28;20077;-73
2023/01/24 01:20:17;;;;;;;;;;;18.50;39.30;;;;;;5114820;28;20374;-74
2023/01/24 01:22:42;;;;;;;;;;;18.30;39.10;;;;;;5096654;28;19931;-73
2023/01/24 01:25:08;;;;;;;;;;;18.30;39.10;;;;;;5096279;28;19924;-73
2023/01/24 01:27:34;;;;;;;;;;;18.30;39.20;;;;;;5096369;28;19920;-72
2023/01/24 01:29:59;;;;;;;;;;;18.30;39.10;;;;;;5114666;28;19919;-73
2023/01/24 01:32:25;;;;;;;;;;;18.30;39.20;;;;;;5114643;28;19982;-71
2023/01/24 01:34:50;;;;;;;;;;;18.30;39.30;;;;;;5130765;27;19959;-73
2023/01/24 01:37:16;;;;;;;;;;;18.30;39.30;;;;;;5130725;27;20313;-73
2023/01/24 01:39:44;;;;;;;;;;;18.30;39.30;;;;;;5114510;28;20558;-72
2023/01/24 01:42:10;;;;;;;;;;;18.20;39.20;;;;;;5096197;28;19969;-71
2023/01/24 01:44:38;;;;;;;;;;;18.20;40.00;;;;;;5096314;28;19924;-71
2023/01/24 01:47:10;;;;;;;;;;;18.20;39.30;;;;;;5113618;28;20290;-73
2023/01/24 01:49:36;;;;;;;;;;;18.20;39.40;;;;;;5096041;28;19967;-75
2023/01/24 01:52:03;;;;;;;;;;;18.10;39.30;;;;;;5114331;28;19930;-72
2023/01/24 01:54:31;;;;;;;;;;;18.10;39.40;;;;;;5095817;28;19919;-73
2023/01/24 01:56:59;;;;;;;;;;;18.10;39.40;;;;;;5096358;28;19920;-72
2023/01/24 01:59:26;;;;;;;;;;;18.10;39.30;;;;;;5114058;28;20446;-75
2023/01/24 02:01:52;;;;;;;;;;;18.10;39.50;;;;;;5096153;28;19980;-73
2023/01/24 02:04:22;;;;;;;;;;;18.20;39.50;;;;;;5095597;28;20362;-74
2023/01/24 02:09:37;;;;;;;;;;;18.50;39.20;;;;;;5130730;27;20007;-74
2023/01/24 02:12:05;;;;;;;;;;;18.70;38.90;;;;;;5129487;28;20373;-73
2023/01/24 02:17:17;;;;;;;;;;;19.40;38.30;;;;;;5129483;28;19926;-74
2023/01/24 02:19:49;;;;;;;;;;;19.90;37.80;;;;;;5129284;28;19919;-75
2023/01/24 02:22:34;;;;;;;;;;;20.30;37.10;;;;;;5130636;27;19928;-74
2023/01/24 02:25:06;;;;;;;;;;;20.70;36.60;;;;;;5129362;28;20013;-73
2023/01/24 02:27:31;;;;;;;;;;;21.10;36.10;;;;;;5129058;28;20413;-73
2023/01/24 02:29:57;;;;;;;;;;;21.40;35.70;;;;;;5129379;28;19920;-74
2023/01/24 02:32:24;;;;;;;;;;;21.70;35.20;;;;;;5130708;27;20023;-74
2023/01/24 02:34:49;;;;;;;;;;;21.90;34.80;;;;;;5129315;28;19926;-74
2023/01/24 02:37:15;;;;;;;;;;;22.10;34.50;;;;;;5128882;28;20285;-74
2023/01/24 02:42:22;;;;;;;;;;;22.40;33.90;;;;;;5110225;27;19912;-74
2023/01/24 02:44:51;;;;;;;;;;;22.60;33.80;;;;;;5108976;28;19927;-74
2023/01/24 02:47:17;;;;;;;;;;;22.80;33.60;;;;;;5109107;28;19966;-73
2023/01/24 02:49:42;;;;;;;;;;;22.80;33.50;;;;;;5108887;28;20371;-73
2023/01/24 02:54:54;;;;;;;;;;;23.10;32.90;;;;;;5108815;28;19943;-73
2023/01/24 03:00:06;;;;;;;;;;;23.20;32.90;;;;;;5108098;28;19962;-74
2023/01/24 03:02:32;;;;;;;;;;;23.20;32.50;;;;;;5143137;27;19924;-74
2023/01/24 03:04:57;;;;;;;;;;;23.30;32.50;;;;;;5108971;28;20346;-74
2023/01/24 03:07:23;;;;;;;;;;;23.40;32.50;;;;;;5108428;28;19967;-74
2023/01/24 03:09:48;;;;;;;;;;;23.40;32.30;;;;;;5108473;28;20003;-73
2023/01/24 03:34:32;;;;;;;;;;;23.20;32.10;;;;;;5107811;28;19920;-73
2023/01/24 03:36:59;;;;;;;;;;;23.10;32.20;;;;;;5109007;28;20274;-71
2023/01/24 03:39:59;;;;;;;;;;;23.20;32.20;;;;;;5108145;28;19943;-73
2023/01/24 03:42:13;;;;;;;;;;;23.30;32.30;;;;;;5107270;28;19969;-72
2023/01/24 03:44:41;;;;;;;;;;;23.30;32.10;;;;;;5108127;28;19924;-71
2023/01/24 03:47:07;;;;;;;;;;;23.40;32.00;;;;;;5107772;28;19927;-72
2023/01/24 03:52:33;;;;;;;;;;;23.50;31.90;;;;;;5101434;28;19920;-73
2023/01/24 03:54:59;;;;;;;;;;;23.50;31.70;;;;;;5093824;28;20382;-72
2023/01/24 03:57:26;;;;;;;;;;;23.60;31.70;;;;;;5093641;28;19969;-70
2023/01/24 03:59:51;;;;;;;;;;;23.70;31.60;;;;;;5094640;28;19920;-70
2023/01/24 04:02:17;;;;;;;;;;;23.70;31.60;;;;;;5093509;28;20428;-77
2023/01/24 04:05:14;;;;;;;;;;;23.70;31.70;;;;;;5094836;28;20393;-73
2023/01/24 04:07:28;;;;;;;;;;;23.70;31.40;;;;;;5093714;28;19959;-72
2023/01/24 04:09:54;;;;;;;;;;;23.80;31.40;;;;;;5094528;28;19959;-72
2023/01/24 04:12:20;;;;;;;;;;;23.90;31.40;;;;;;5093398;28;19931;-73
2023/01/24 04:14:46;;;;;;;;;;;23.80;31.20;;;;;;5092897;28;19924;-72
2023/01/24 04:17:11;;;;;;;;;;;23.90;31.20;;;;;;5094625;28;19924;-73
2023/01/24 04:19:37;;;;;;;;;;;23.90;31.20;;;;;;5093272;28;19946;-72
2023/01/24 04:22:02;;;;;;;;;;;23.80;31.30;;;;;;5092963;28;19932;-73
2023/01/24 04:24:28;;;;;;;;;;;23.80;31.30;;;;;;5093238;28;19920;-71
2023/01/24 04:26:53;;;;;;;;;;;23.90;31.30;;;;;;5093336;28;19920;-70
2023/01/24 04:29:20;;;;;;;;;;;23.90;31.20;;;;;;5094033;28;20028;-73
2023/01/24 04:31:45;;;;;;;;;;;23.90;31.20;;;;;;5094311;28;19927;-71
2023/01/24 04:34:11;;;;;;;;;;;23.90;31.20;;;;;;5092797;28;19924;-74
2023/01/24 04:36:36;;;;;;;;;;;23.80;31.10;;;;;;5093035;28;20010;-72
2023/01/24 04:39:02;;;;;;;;;;;23.80;31.10;;;;;;5092819;28;19920;-71
2023/01/24 04:41:28;;;;;;;;;;;23.80;31.10;;;;;;5107364;28;19924;-73
2023/01/24 04:44:00;;;;;;;;;;;23.90;31.10;;;;;;5095592;28;20274;-72
2023/01/24 04:46:27;;;;;;;;;;;23.90;31.00;;;;;;5095859;28;19930;-74
2023/01/24 04:48:52;;;;;;;;;;;23.80;31.10;;;;;;5095544;28;19994;-71
2023/01/24 04:51:18;;;;;;;;;;;23.80;31.00;;;;;;5095532;28;19920;-73
2023/01/24 04:53:43;;;;;;;;;;;23.80;31.00;;;;;;5095515;28;19920;-73
2023/01/24 04:56:10;;;;;;;;;;;23.80;30.90;;;;;;5113334;28;19919;-72
2023/01/24 04:58:35;;;;;;;;;;;23.80;31.00;;;;;;5113203;28;19959;-72
2023/01/24 05:01:01;;;;;;;;;;;23.80;31.00;;;;;;5094705;28;19974;-72
2023/01/24 05:03:27;;;;;;;;;;;23.90;31.00;;;;;;5112692;28;19920;-72
2023/01/24 05:05:53;;;;;;;;;;;23.90;30.90;;;;;;5113421;28;19924;-72
2023/01/24 05:08:19;;;;;;;;;;;23.90;30.80;;;;;;5095483;28;19945;-72
2023/01/24 05:10:45;;;;;;;;;;;23.90;30.80;;;;;;5094890;28;20018;-72
2023/01/24 05:13:11;;;;;;;;;;;23.90;30.80;;;;;;5095596;28;20010;-71
2023/01/24 05:15:36;;;;;;;;;;;24.00;30.80;;;;;;5095369;28;19927;-73
2023/01/24 05:18:02;;;;;;;;;;;24.00;30.80;;;;;;5114007;28;20334;-75
2023/01/24 05:20:28;;;;;;;;;;;24.00;30.70;;;;;;5094969;28;19954;-71
2023/01/24 05:22:56;;;;;;;;;;;24.10;30.60;;;;;;5095195;28;20010;-73
2023/01/24 05:25:22;;;;;;;;;;;24.10;30.60;;;;;;5113166;28;19934;-72
2023/01/24 05:27:48;;;;;;;;;;;24.20;30.60;;;;;;5114130;28;19920;-71
2023/01/24 05:30:13;;;;;;;;;;;24.20;30.50;;;;;;5095027;28;20378;-72
2023/01/24 05:32:39;;;;;;;;;;;24.30;30.40;;;;;;5094797;28;19920;-72
2023/01/24 05:35:05;;;;;;;;;;;24.30;30.40;;;;;;5095335;28;19919;-73
2023/01/24 05:37:30;;;;;;;;;;;24.40;30.30;;;;;;5113464;28;19958;-74
2023/01/24 05:39:56;;;;;;;;;;;24.40;30.20;;;;;;5128969;27;20278;-72
2023/01/24 05:42:21;;;;;;;;;;;24.40;30.30;;;;;;5128970;27;20393;-72
2023/01/24 05:44:47;;;;;;;;;;;24.40;30.10;;;;;;5129324;27;19946;-73
2023/01/24 05:47:15;;;;;;;;;;;24.30;30.20;;;;;;5114187;27;20328;-73
2023/01/24 05:49:41;;;;;;;;;;;24.30;30.30;;;;;;5074880;28;20355;-73
2023/01/24 05:52:06;;;;;;;;;;;24.30;30.30;;;;;;5074668;28;19963;-72
2023/01/24 05:54:32;;;;;;;;;;;24.20;30.30;;;;;;5074798;28;20015;-73
2023/01/24 05:56:57;;;;;;;;;;;24.10;30.30;;;;;;5074765;28;20019;-72
2023/01/24 05:59:23;;;;;;;;;;;24.10;30.30;;;;;;5108942;28;20022;-73
2023/01/24 06:01:51;;;;;;;;;;;24.10;30.40;;;;;;5074592;28;20286;-72
2023/01/24 06:04:17;;;;;;;;;;;24.10;30.40;;;;;;5074762;28;19970;-73
2023/01/24 06:06:42;;;;;;;;;;;24.00;30.30;;;;;;5109090;28;19971;-74
2023/01/24 06:09:08;;;;;;;;;;;24.00;30.30;;;;;;5092896;28;19927;-74
2023/01/24 06:11:34;;;;;;;;;;;24.00;30.40;;;;;;5092899;28;19973;-74
2023/01/24 06:14:00;;;;;;;;;;;23.90;30.40;;;;;;5108361;28;19963;-73
2023/01/24 06:16:25;;;;;;;;;;;24.00;30.30;;;;;;5092347;28;19921;-73
2023/01/24 06:18:52;;;;;;;;;;;24.00;30.30;;;;;;5092620;28;20454;-73
2023/01/24 06:21:40;;;;;;;;;;;24.10;30.20;;;;;;5092714;28;19920;-73
2023/01/24 06:24:08;;;;;;;;;;;24.10;30.20;;;;;;5074293;28;19977;-73
2023/01/24 06:26:33;;;;;;;;;;;24.10;30.10;;;;;;5074450;28;20012;-72
2023/01/24 06:28:59;;;;;;;;;;;24.10;30.00;;;;;;5074313;28;20011;-73
2023/01/24 06:31:33;;;;;;;;;;;24.10;30.10;;;;;;5074326;28;19931;-74
2023/01/24 06:36:53;;;;;;;;;;;24.20;30.00;;;;;;5109308;27;19916;-74
2023/01/24 06:39:21;;;;;;;;;;;24.20;30.00;;;;;;5109943;28;19923;-73
2023/01/24 06:41:47;;;;;;;;;;;24.20;30.20;;;;;;5106395;28;19924;-80
2023/01/24 06:44:12;;;;;;;;;;;24.00;30.50;;;;;;5107660;28;19923;-71
2023/01/24 06:46:38;;;;;;;;;;;23.90;30.70;;;;;;5107638;28;19928;-74
2023/01/24 06:49:04;;;;;;;;;;;23.70;30.60;;;;;;5105118;28;19927;-69
2023/01/24 06:51:29;;;;;;;;;;;23.60;31.00;;;;;;5104612;28;20011;-70
2023/01/24 06:53:55;;;;;;;;;;;23.50;30.90;;;;;;5104710;28;19920;-74
2023/01/24 06:56:20;;;;;;;;;;;23.40;31.10;;;;;;5105941;28;19924;-72
2023/01/24 06:58:47;;;;;;;;;;;23.20;31.30;;;;;;5107141;28;19920;-72
2023/01/24 07:01:15;;;;;;;;;;;23.10;31.50;;;;;;5101579;28;19978;-73
2023/01/24 07:03:41;;;;;;;;;;;22.80;31.50;;;;;;5106450;28;19920;-73
2023/01/24 07:06:06;;;;;;;;;;;22.50;31.30;;;;;;5103163;28;19920;-72
2023/01/24 07:08:32;;;;;;;;;;;22.30;31.90;;;;;;5136282;27;19923;-72
2023/01/24 07:10:58;;;;;;;;;;;22.00;32.30;;;;;;5089704;28;19935;-73
2023/01/24 07:13:24;;;;;;;;;;;21.80;32.40;;;;;;5085227;28;19920;-73
2023/01/24 07:15:49;;;;;;;;;;;21.70;33.00;;;;;;5087930;28;19927;-74
2023/01/24 07:18:16;;;;;;;;;;;21.50;33.00;;;;;;5085182;28;20719;-74
2023/01/24 07:20:41;;;;;;;;;;;21.40;33.20;;;;;;5087565;28;19931;-74
2023/01/24 07:23:23;;;;;;;;;;;21.20;33.40;;;;;;5114767;27;19920;-74
2023/01/24 07:25:50;;;;;;;;;;;21.00;33.70;;;;;;5085753;28;20043;-73
2023/01/24 07:28:15;;;;;;;;;;;20.90;34.00;;;;;;5091174;28;19947;-73
2023/01/24 07:30:41;;;;;;;;;;;20.70;34.20;;;;;;5076918;28;20059;-75
2023/01/24 07:33:07;;;;;;;;;;;20.60;34.30;;;;;;5064665;28;19960;-73
2023/01/24 07:35:32;;;;;;;;;;;20.50;34.50;;;;;;5084465;28;19938;-73
2023/01/24 07:38:05;;;;;;;;;;;20.40;34.80;;;;;;5102940;27;20014;-73
2023/01/24 07:40:30;;;;;;;;;;;20.30;35.20;;;;;;5093606;28;20569;-72
2023/01/24 07:42:58;;;;;;;;;;;20.20;35.30;;;;;;5090089;27;19931;-72
2023/01/24 07:45:23;;;;;;;;;;;20.10;36.00;;;;;;5090958;28;19920;-74
2023/01/24 07:47:49;;;;;;;;;;;20.00;36.20;;;;;;5095206;28;19977;-72
2023/01/24 07:50:15;;;;;;;;;;;19.80;35.90;;;;;;5078916;28;19928;-72
2023/01/24 07:52:40;;;;;;;;;;;19.70;36.60;;;;;;5073043;28;19927;-74
2023/01/24 07:55:06;;;;;;;;;;;19.80;36.80;;;;;;5089429;28;20306;-73
2023/01/24 07:57:31;;;;;;;;;;;19.70;36.90;;;;;;5090845;28;19973;-75
2023/01/24 07:59:57;;;;;;;;;;;19.70;37.00;;;;;;5111429;27;19924;-79
2023/01/24 08:02:22;;;;;;;;;;;19.70;37.90;;;;;;5074556;28;20307;-73
2023/01/24 08:04:48;;;;;;;;;;;19.70;37.20;;;;;;5093176;28;19928;-77
2023/01/24 08:07:17;;;;;;;;;;;19.70;37.30;;;;;;5096266;28;20303;-74
2023/01/24 08:09:42;;;;;;;;;;;19.70;37.50;;;;;;5095968;28;20349;-80
2023/01/24 08:12:08;;;;;;;;;;;19.80;37.60;;;;;;5096909;27;19959;-71
2023/01/24 08:14:33;;;;;;;;;;;19.90;37.50;;;;;;5076977;28;19952;-78
2023/01/24 08:16:59;;;;;;;;;;;19.90;37.40;;;;;;5092287;28;19928;-77
2023/01/24 08:19:25;;;;;;;;;;;20.00;37.30;;;;;;5077640;27;19923;-74
2023/01/24 08:21:50;;;;;;;;;;;20.10;37.20;;;;;;5072966;28;19982;-67
2023/01/24 08:24:16;;;;;;;;;;;20.10;37.00;;;;;;5070916;28;20410;-70
2023/01/24 08:26:41;;;;;;;;;;;20.20;37.20;;;;;;5099973;27;19978;-66
2023/01/24 08:29:07;;;;;;;;;;;20.20;36.80;;;;;;5068055;28;19936;-73
2023/01/24 08:31:32;;;;;;;;;;;20.20;36.60;;;;;;5066322;28;19931;-75
2023/01/24 08:33:58;;;;;;;;;;;20.10;36.40;;;;;;5102167;27;20202;-73
2023/01/24 08:36:23;;;;;;;;;;;20.00;36.40;;;;;;5075475;28;19980;-75
2023/01/24 08:38:49;;;;;;;;;;;20.00;36.50;;;;;;5074212;27;19976;-71
2023/01/24 08:41:15;;;;;;;;;;;20.10;36.60;;;;;;5069260;28;19973;-71
2023/01/24 08:43:42;;;;;;;;;;;20.00;36.60;;;;;;5089637;28;19923;-68
2023/01/24 08:46:07;;;;;;;;;;;20.00;36.60;;;;;;5103243;27;19974;-73
2023/01/24 08:48:36;;;;;;;;;;;20.00;36.60;;;;;;5077602;28;19924;-74
2023/01/24 08:51:02;;;;;;;;;;;20.00;36.50;;;;;;5073291;28;19924;-75
2023/01/24 08:53:28;;;;;;;;;;;19.90;36.50;;;;;;5072203;28;19923;-76
2023/01/24 08:55:53;;;;;;;;;;;19.90;36.50;;;;;;5073547;28;20666;-70
2023/01/24 08:58:20;;;;;;;;;;;19.80;36.40;;;;;;5086462;28;19931;-69
2023/01/24 09:00:46;;;;;;;;;;;19.70;36.60;;;;;;5093531;28;19928;-75
2023/01/24 09:03:14;;;;;;;;;;;19.70;36.50;;;;;;5078241;28;19920;-77
2023/01/24 09:05:39;;;;;;;;;;;19.60;36.90;;;;;;5091841;28;20446;-72
2023/01/24 09:08:05;;;;;;;;;;;19.60;36.80;;;;;;5075315;28;19949;-74
2023/01/24 09:10:30;;;;;;;;;;;19.50;37.20;;;;;;5080070;27;19927;-75
2023/01/24 09:12:56;;;;;;;;;;;19.60;37.20;;;;;;5112011;27;19928;-74
2023/01/24 09:15:22;;;;;;;;;;;19.60;37.20;;;;;;5087088;27;19928;-75
2023/01/24 09:17:47;;;;;;;;;;;19.60;37.00;;;;;;5070245;28;19935;-74
2023/01/24 09:20:13;;;;;;;;;;;19.60;36.90;;;;;;5074649;28;19945;-74
2023/01/24 09:22:39;;;;;;;;;;;19.70;36.90;;;;;;5109136;27;20262;-74
2023/01/24 09:25:07;;;;;;;;;;;19.70;36.70;;;;;;5074966;28;19920;-73
2023/01/24 09:27:33;;;;;;;;;;;19.70;36.50;;;;;;5072904;28;20011;-72
2023/01/24 09:29:58;;;;;;;;;;;19.80;36.30;;;;;;5077122;28;20077;-73
2023/01/24 09:32:24;;;;;;;;;;;19.80;36.10;;;;;;5073581;28;19924;-75
2023/01/24 09:34:49;;;;;;;;;;;19.90;36.10;;;;;;5074745;28;19928;-74
2023/01/24 09:37:17;;;;;;;;;;;20.00;36.00;;;;;;5076302;28;19920;-74
2023/01/24 09:39:43;;;;;;;;;;;20.00;36.10;;;;;;5072248;28;19927;-74
2023/01/24 09:44:47;;;;;;;;;;;20.20;35.70;;;;;;5058479;28;19921;-73
2023/01/24 09:47:16;;;;;;;;;;;20.20;35.50;;;;;;5052393;28;19928;-73
2023/01/24 09:49:45;;;;;;;;;;;20.20;35.40;;;;;;5035262;28;19925;-74
2023/01/24 09:52:23;;;;;;;;;;;20.30;35.30;;;;;;5029667;28;20116;-73
2023/01/24 09:54:57;;;;;;;;;;;20.30;36.10;;;;;;5033702;28;20088;-70
2023/01/24 09:57:26;;;;;;;;;;;20.30;35.20;;;;;;5033103;28;20071;-72
2023/01/24 09:59:53;;;;;;;;;;;20.20;35.20;;;;;;5051631;28;19925;-73
2023/01/24 10:02:20;;;;;;;;;;;20.10;35.10;;;;;;5034485;28;19929;-73
2023/01/24 10:04:46;;;;;;;;;;;20.10;35.20;;;;;;5040301;28;19947;-72
2023/01/24 10:07:25;;;;;;;;;;;20.00;35.20;;;;;;5039574;28;19956;-73
2023/01/24 10:15:22;;;;;;;;;;;19.80;35.20;;;;;;5066201;28;19921;-74
2023/01/24 10:18:07;;;;;;;;;;;19.70;35.30;;;;;;5063810;28;19925;-74
2023/01/24 10:23:16;;;;;;;;;;;19.70;35.30;;;;;;5063795;28;19931;-75
2023/01/24 10:25:49;;;;;;;;;;;19.60;35.20;;;;;;5047864;28;19921;-74
2023/01/24 10:28:18;;;;;;;;;;;19.60;35.30;;;;;;5050618;28;19928;-72
2023/01/24 10:30:47;;;;;;;;;;;19.60;35.30;;;;;;5051312;28;19978;-72
2023/01/24 10:33:16;;;;;;;;;;;19.60;35.20;;;;;;5060318;28;19929;-71
2023/01/24 10:35:59;;;;;;;;;;;19.60;35.20;;;;;;5070758;28;20011;-72
2023/01/24 10:38:25;;;;;;;;;;;19.60;35.20;;;;;;5055735;28;20364;-71
2023/01/24 10:40:52;;;;;;;;;;;19.70;35.20;;;;;;5067799;28;20431;-71
2023/01/24 10:43:19;;;;;;;;;;;19.70;35.00;;;;;;5054850;28;19928;-72
2023/01/24 10:48:30;;;;;;;;;;;19.80;34.90;;;;;;4903629;27;7729447;-72
2023/01/24 10:51:09;;;;;;;;;;;19.80;34.80;;;;;;5142303;27;19923;-71
2023/01/24 10:53:34;;;;;;;;;;;19.80;34.70;;;;;;5157184;27;20374;-72
2023/01/24 10:56:01;;;;;;;;;;;19.80;34.60;;;;;;5151354;27;19963;-71
2023/01/24 10:58:32;;;;;;;;;;;19.90;34.60;;;;;;5152852;27;20264;-71
2023/01/24 11:00:58;;;;;;;;;;;19.90;34.60;;;;;;5154969;27;19923;-71
2023/01/24 11:03:27;;;;;;;;;;;19.90;34.50;;;;;;5148247;27;20018;-72
2023/01/24 11:05:54;;;;;;;;;;;19.90;34.40;;;;;;5152364;27;19962;-71
2023/01/24 11:08:20;;;;;;;;;;;19.90;34.30;;;;;;5149401;27;19952;-72
2023/01/24 11:10:46;;;;;;;;;;;19.90;34.30;;;;;;5173973;27;19974;-72
2023/01/24 11:13:32;;;;;;;;;;;20.00;35.10;;;;;;5173978;27;20354;-72
2023/01/24 11:16:01;;;;;;;;;;;20.00;34.20;;;;;;5172911;27;19963;-72
2023/01/24 11:18:27;;;;;;;;;;;20.00;34.20;;;;;;5156904;27;20009;-72
2023/01/24 11:21:12;;;;;;;;;;;20.00;34.10;;;;;;5151737;27;19931;-72
2023/01/24 11:23:39;;;;;;;;;;;20.00;34.10;;;;;;5150917;27;20013;-72
2023/01/24 11:26:05;;;;;;;;;;;20.00;34.10;;;;;;5151646;27;20306;-70
2023/01/24 11:28:32;;;;;;;;;;;20.00;34.10;;;;;;5153874;27;19975;-70
2023/01/24 11:31:03;;;;;;;;;;;20.00;34.10;;;;;;5147159;27;19980;-70
2023/01/24 11:33:39;;;;;;;;;;;20.00;34.00;;;;;;5170634;27;19926;-70
2023/01/24 11:36:11;;;;;;;;;;;20.00;33.90;;;;;;5156233;27;20022;-70
2023/01/24 11:38:40;;;;;;;;;;;20.00;33.90;;;;;;5154321;27;19929;-70
2023/01/24 11:52:40;;;;;;;;;;;19.90;33.60;;;;;;5084380;27;19946;-70
2023/01/24 11:57:55;;;;;;;;;;;19.90;33.50;;;;;;5111093;27;1862848;-70
2023/01/24 12:00:25;;;;;;;;;;;20.10;33.60;;;;;;5154015;27;19923;-70
2023/01/24 12:08:30;;;;;;;;;;;20.00;33.50;;;;;;5104725;27;1872486;-70
2023/01/24 12:13:55;;;;;;;;;;;20.00;33.40;;;;;;5110179;27;19923;-72
2023/01/24 12:21:43;;;;;;;;;;;20.00;33.40;;;;;;5074411;28;20299;-69
2023/01/24 12:24:15;;;;;;;;;;;20.00;33.40;;;;;;5069099;28;20445;-70
2023/01/24 12:26:43;;;;;;;;;;;20.00;33.40;;;;;;5086116;28;20337;-69
2023/01/24 12:29:18;;;;;;;;;;;20.00;33.40;;;;;;5071792;28;19932;-70
2023/01/24 12:31:49;;;;;;;;;;;20.00;33.40;;;;;;5069089;28;19974;-72
2023/01/24 12:34:26;;;;;;;;;;;20.00;33.30;;;;;;5080572;28;19947;-70
2023/01/24 12:36:59;;;;;;;;;;;20.00;33.20;;;;;;5064808;28;19928;-70
2023/01/24 12:39:30;;;;;;;;;;;19.90;33.20;;;;;;5071147;28;19920;-70
2023/01/24 12:42:01;;;;;;;;;;;19.90;33.20;;;;;;5071677;28;20410;-70
2023/01/24 12:44:30;;;;;;;;;;;19.90;33.10;;;;;;5072036;28;20527;-70
2023/01/24 12:47:02;;;;;;;;;;;19.90;33.00;;;;;;5067074;28;19929;-69
2023/01/24 12:52:32;;;;;;;;;;;19.90;33.00;;;;;;5107237;27;20566;-70
2023/01/24 12:55:14;;;;;;;;;;;19.90;33.00;;;;;;5094073;28;19947;-70
2023/01/24 12:57:44;;;;;;;;;;;19.90;33.00;;;;;;5094509;28;19970;-69
2023/01/24 13:00:28;;;;;;;;;;;19.90;32.90;;;;;;5099479;28;19920;-70
2023/01/24 13:05:43;;;;;;;;;;;19.90;32.70;;;;;;5060344;28;19923;-70
2023/01/24 13:08:15;;;;;;;;;;;19.90;32.70;;;;;;5055707;28;20032;-70
2023/01/24 13:10:47;;;;;;;;;;;20.00;32.70;;;;;;5053716;28;19991;-70
2023/01/24 13:13:19;;;;;;;;;;;20.00;32.60;;;;;;5070158;28;20296;-70
2023/01/24 13:18:39;;;;;;;;;;;20.00;32.50;;;;;;5067522;28;20190;-70
2023/01/24 13:21:13;;;;;;;;;;;20.10;32.50;;;;;;5069785;28;20190;-70
2023/01/24 13:23:48;;;;;;;;;;;20.10;32.40;;;;;;5066528;28;20512;-70
2023/01/24 13:26:33;;;;;;;;;;;20.10;32.40;;;;;;5065505;28;19925;-70
2023/01/24 13:34:21;;;;;;;;;;;20.20;32.40;;;;;;5059543;27;1864124;-70
2023/01/24 13:36:48;;;;;;;;;;;20.10;32.40;;;;;;5083818;28;19969;-70
2023/01/24 13:39:38;;;;;;;;;;;20.10;32.40;;;;;;5083073;28;20003;-70
2023/01/24 13:42:06;;;;;;;;;;;20.10;32.40;;;;;;5078528;28;20596;-69
2023/01/24 13:44:35;;;;;;;;;;;20.10;32.30;;;;;;5086668;28;19920;-69
2023/01/24 13:47:02;;;;;;;;;;;20.10;32.30;;;;;;5083996;28;19920;-69
2023/01/24 13:52:28;;;;;;;;;;;20.10;32.30;;;;;;5082478;28;20449;-70
2023/01/24 13:54:53;;;;;;;;;;;20.00;32.30;;;;;;5067171;28;19975;-69
2023/01/24 14:11:03;;;;;;;;;;;20.00;32.70;;;;;;5104783;27;20226;-70
2023/01/24 14:13:49;;;;;;;;;;;19.90;32.70;;;;;;5099528;28;20398;-71
2023/01/24 14:19:17;;;;;;;;;;;19.90;32.80;;;;;;5084658;28;20427;-72
2023/01/24 14:21:48;;;;;;;;;;;19.90;32.80;;;;;;5069570;28;20046;-72
2023/01/24 14:24:19;;;;;;;;;;;20.00;32.90;;;;;;5064815;28;19974;-72
2023/01/24 14:26:49;;;;;;;;;;;20.00;32.90;;;;;;5064786;28;19927;-72
2023/01/24 14:29:16;;;;;;;;;;;20.00;32.90;;;;;;5062934;28;19921;-72
2023/01/24 14:31:44;;;;;;;;;;;20.00;32.90;;;;;;5062976;28;20376;-73
2023/01/24 14:34:15;;;;;;;;;;;20.00;32.80;;;;;;5063754;28;19968;-73
2023/01/24 14:36:41;;;;;;;;;;;20.00;32.80;;;;;;5063415;28;20451;-73
2023/01/24 14:42:03;;;;;;;;;;;20.10;32.80;;;;;;5106431;27;20275;-72
2023/01/24 14:44:37;;;;;;;;;;;20.00;32.70;;;;;;5104510;28;20440;-72
2023/01/24 14:47:04;;;;;;;;;;;20.10;32.80;;;;;;5105705;28;19927;-72
2023/01/24 14:55:14;;;;;;;;;;;20.00;32.80;;;;;;5123027;27;1866715;-72
2023/01/24 14:57:40;;;;;;;;;;;20.10;32.90;;;;;;5149459;27;19919;-73
2023/01/24 15:02:55;;;;;;;;;;;20.00;32.80;;;;;;5127338;27;19912;-72
2023/01/24 15:05:23;;;;;;;;;;;19.90;32.80;;;;;;5101996;28;19921;-73
2023/01/24 15:07:48;;;;;;;;;;;20.00;32.80;;;;;;5067834;28;19920;-72
2023/01/24 15:10:14;;;;;;;;;;;19.90;32.80;;;;;;5111918;27;20174;-73
2023/01/24 15:12:40;;;;;;;;;;;19.90;32.80;;;;;;5085165;28;19924;-73
2023/01/24 15:15:05;;;;;;;;;;;19.80;32.80;;;;;;5085861;28;20019;-74
2023/01/24 15:17:32;;;;;;;;;;;19.80;32.90;;;;;;5085175;28;19940;-74
2023/01/24 15:19:59;;;;;;;;;;;19.80;33.00;;;;;;5087528;28;19928;-73
2023/01/24 15:22:25;;;;;;;;;;;19.70;33.00;;;;;;5106774;28;19924;-73
2023/01/24 15:24:52;;;;;;;;;;;19.70;33.10;;;;;;5122463;28;19930;-73
2023/01/24 15:27:30;;;;;;;;;;;19.60;33.10;;;;;;5106485;28;19988;-73
2023/01/24 15:30:15;;;;;;;;;;;19.50;33.20;;;;;;5105765;28;19970;-73
2023/01/24 15:32:42;;;;;;;;;;;19.50;33.20;;;;;;5091156;28;19927;-74
2023/01/24 15:43:57;;;;;;;;;;;19.30;33.60;;;;;;5109519;27;1865243;-73
2023/01/24 15:49:02;;;;;;;;;;;19.20;33.60;;;;;;5144201;27;20539;-72
2023/01/24 15:51:33;;;;;;;;;;;19.20;33.70;;;;;;5148834;27;19923;-73
2023/01/24 15:53:58;;;;;;;;;;;19.20;33.80;;;;;;5148138;27;19944;-72
2023/01/24 15:56:24;;;;;;;;;;;19.30;33.80;;;;;;5147246;27;19923;-73
2023/01/24 15:58:52;;;;;;;;;;;19.10;33.80;;;;;;5138959;27;19929;-68
2023/01/24 16:01:18;;;;;;;;;;;19.10;33.90;;;;;;5166480;27;19966;-72
2023/01/24 16:03:44;;;;;;;;;;;19.10;33.90;;;;;;5149887;27;19958;-72
2023/01/24 16:06:09;;;;;;;;;;;19.10;33.90;;;;;;5149242;27;20013;-69
2023/01/24 16:08:35;;;;;;;;;;;19.10;34.00;;;;;;5169289;27;19994;-70
2023/01/24 16:11:00;;;;;;;;;;;19.10;33.90;;;;;;5147644;27;19919;-72
2023/01/24 16:13:35;;;;;;;;;;;19.00;33.90;;;;;;5166794;27;19918;-68
2023/01/24 16:16:04;;;;;;;;;;;19.00;34.00;;;;;;5167749;27;20330;-70
2023/01/24 16:18:29;;;;;;;;;;;19.00;34.10;;;;;;5138028;27;20409;-69
2023/01/24 16:20:55;;;;;;;;;;;19.00;34.10;;;;;;5156507;27;19959;-69
2023/01/24 16:23:20;;;;;;;;;;;19.00;34.20;;;;;;5155698;27;20340;-70
2023/01/24 16:25:47;;;;;;;;;;;18.90;34.10;;;;;;5143209;27;19919;-70
2023/01/24 16:28:16;;;;;;;;;;;18.90;34.10;;;;;;5159072;27;19923;-72
2023/01/24 16:30:47;;;;;;;;;;;18.90;34.20;;;;;;5142991;27;19938;-70
2023/01/24 16:33:13;;;;;;;;;;;18.80;34.10;;;;;;5155699;27;19954;-68
2023/01/24 16:35:38;;;;;;;;;;;18.80;34.10;;;;;;5131698;27;20061;-69
2023/01/24 16:38:04;;;;;;;;;;;18.80;34.30;;;;;;5142123;27;19934;-71